Time;durP1;ratioP1;P1;durP2;ratioP2;P2;SDS_P1;SDS_P2;PMS_P1;PMS_P2;Temp;Humidity;BMP_temperature;BMP_pressure;BME280_temperature;BME280_humidity;BME280_pressure;Samples;Min_cycle;Max_cycle;Signal;HPM_P1;HPM_P2
2022/08/20 00:00:35;;;;;;;;;;;17.70;99.90;;;;;;5051650;28;19966;-75
2022/08/20 00:03:02;;;;;;;;;;;17.70;99.90;;;;;;5052812;28;19995;-75
2022/08/20 00:05:33;;;;;;;;;;;17.70;99.90;;;;;;5052800;28;20282;-76
2022/08/20 00:08:02;;;;;;;;;;;17.60;99.90;;;;;;5052800;28;19952;-76
2022/08/20 00:10:30;;;;;;;;;;;17.50;99.90;;;;;;5057690;28;20011;-75
2022/08/20 00:12:56;;;;;;;;;;;17.50;99.90;;;;;;5052717;28;19920;-76
2022/08/20 00:15:23;;;;;;;;;;;17.40;99.90;;;;;;5052538;28;19913;-76
2022/08/20 00:17:50;;;;;;;;;;;17.40;99.90;;;;;;5052540;28;19992;-78
2022/08/20 00:20:17;;;;;;;;;;;17.40;99.90;;;;;;5052820;28;19915;-76
2022/08/20 00:22:42;;;;;;;;;;;17.40;99.90;;;;;;5052331;28;20002;-75
2022/08/20 00:25:08;;;;;;;;;;;17.40;99.90;;;;;;5051962;28;19940;-76
2022/08/20 00:27:34;;;;;;;;;;;17.40;99.90;;;;;;5052589;28;20376;-75
2022/08/20 00:30:00;;;;;;;;;;;17.40;99.90;;;;;;5052398;28;19909;-75
2022/08/20 00:32:25;;;;;;;;;;;17.30;99.90;;;;;;5051997;28;20423;-77
2022/08/20 00:34:51;;;;;;;;;;;17.20;99.90;;;;;;5052190;28;19941;-76
2022/08/20 00:37:16;;;;;;;;;;;17.20;99.90;;;;;;5052391;28;20270;-76
2022/08/20 00:39:42;;;;;;;;;;;17.40;99.90;;;;;;5051067;28;19917;-76
2022/08/20 00:42:07;;;;;;;;;;;17.40;99.90;;;;;;5051767;28;19909;-75
2022/08/20 00:44:33;;;;;;;;;;;17.40;99.90;;;;;;5051872;28;19985;-75
2022/08/20 00:46:59;;;;;;;;;;;17.50;99.90;;;;;;5051878;28;20305;-76
2022/08/20 00:49:26;;;;;;;;;;;17.50;99.90;;;;;;5051932;28;19995;-75
2022/08/20 00:52:04;;;;;;;;;;;17.50;99.90;;;;;;5051765;28;19918;-77
2022/08/20 00:54:33;;;;;;;;;;;17.60;99.90;;;;;;5051737;28;19909;-78
2022/08/20 00:57:02;;;;;;;;;;;17.50;99.90;;;;;;5045735;28;20345;-76
2022/08/20 00:59:28;;;;;;;;;;;17.50;99.90;;;;;;5051541;28;19913;-76
2022/08/20 01:01:56;;;;;;;;;;;17.50;99.90;;;;;;5051778;28;19962;-79
2022/08/20 01:04:25;;;;;;;;;;;17.50;99.90;;;;;;5051642;28;19912;-76
2022/08/20 01:06:51;;;;;;;;;;;17.40;99.90;;;;;;5051757;28;19916;-76
2022/08/20 01:09:16;;;;;;;;;;;17.50;99.90;;;;;;5051772;28;19917;-76
2022/08/20 01:11:42;;;;;;;;;;;17.50;99.90;;;;;;5051210;28;19913;-76
2022/08/20 01:14:44;;;;;;;;;;;17.50;99.90;;;;;;5051181;28;19909;-76
2022/08/20 01:17:04;;;;;;;;;;;17.40;99.90;;;;;;5048040;28;21339;-78
2022/08/20 01:19:32;;;;;;;;;;;17.20;99.90;;;;;;5051861;28;19936;-76
2022/08/20 01:21:58;;;;;;;;;;;17.10;99.90;;;;;;5051463;28;19955;-76
2022/08/20 01:24:27;;;;;;;;;;;17.00;99.90;;;;;;5051267;28;19940;-76
2022/08/20 01:26:53;;;;;;;;;;;17.00;99.90;;;;;;5051545;28;19909;-75
2022/08/20 01:29:22;;;;;;;;;;;17.00;99.90;;;;;;5051416;28;19916;-76
2022/08/20 01:31:48;;;;;;;;;;;17.00;99.90;;;;;;5051310;28;19948;-76
2022/08/20 01:34:14;;;;;;;;;;;17.10;99.90;;;;;;5051237;28;20374;-76
2022/08/20 01:36:42;;;;;;;;;;;17.10;99.90;;;;;;5050543;28;19917;-76
2022/08/20 01:39:08;;;;;;;;;;;17.20;99.90;;;;;;5049283;28;20441;-76
2022/08/20 01:41:46;;;;;;;;;;;17.30;99.90;;;;;;5054598;28;19909;-75
2022/08/20 01:44:11;;;;;;;;;;;17.30;99.90;;;;;;5050912;28;20266;-76
2022/08/20 01:46:39;;;;;;;;;;;17.30;99.90;;;;;;5049542;28;19913;-78
2022/08/20 01:49:15;;;;;;;;;;;17.30;99.90;;;;;;5051464;28;19972;-75
2022/08/20 01:51:41;;;;;;;;;;;17.50;99.90;;;;;;5050775;28;20003;-75
2022/08/20 01:54:07;;;;;;;;;;;17.50;99.90;;;;;;5051104;28;20404;-76
2022/08/20 01:56:33;;;;;;;;;;;17.50;99.90;;;;;;5051442;28;19916;-75
2022/08/20 01:59:00;;;;;;;;;;;17.50;99.90;;;;;;5051090;28;20322;-75
2022/08/20 02:01:31;;;;;;;;;;;17.50;99.90;;;;;;5051139;28;19908;-79
2022/08/20 02:03:58;;;;;;;;;;;17.50;99.90;;;;;;5049729;28;20028;-75
2022/08/20 02:06:24;;;;;;;;;;;17.50;99.90;;;;;;5052792;28;20429;-75
2022/08/20 02:08:52;;;;;;;;;;;17.60;99.90;;;;;;5056595;28;19965;-76
2022/08/20 02:11:18;;;;;;;;;;;17.70;99.90;;;;;;5051513;28;20374;-75
2022/08/20 02:13:43;;;;;;;;;;;17.80;99.90;;;;;;5050810;28;19916;-75
2022/08/20 02:16:09;;;;;;;;;;;17.80;99.90;;;;;;5051053;28;20354;-75
2022/08/20 02:18:34;;;;;;;;;;;17.80;99.90;;;;;;5050815;28;19909;-75
2022/08/20 02:21:00;;;;;;;;;;;17.80;99.90;;;;;;5051004;28;19912;-79
2022/08/20 02:23:26;;;;;;;;;;;17.90;99.90;;;;;;5050704;28;19916;-76
2022/08/20 02:25:51;;;;;;;;;;;17.80;99.90;;;;;;5050858;28;19917;-75
2022/08/20 02:28:19;;;;;;;;;;;17.80;99.90;;;;;;5050884;28;19909;-75
2022/08/20 02:30:47;;;;;;;;;;;17.80;99.90;;;;;;5050715;28;19915;-76
2022/08/20 02:33:14;;;;;;;;;;;17.90;99.90;;;;;;5050296;28;20008;-76
2022/08/20 02:35:41;;;;;;;;;;;17.90;99.90;;;;;;5050787;28;20030;-75
2022/08/20 02:38:07;;;;;;;;;;;17.90;99.90;;;;;;5050749;28;19909;-76
2022/08/20 02:40:33;;;;;;;;;;;17.90;99.90;;;;;;5054018;28;20386;-75
2022/08/20 02:42:59;;;;;;;;;;;18.00;99.90;;;;;;5052985;28;19913;-75
2022/08/20 02:45:25;;;;;;;;;;;17.90;99.90;;;;;;5050574;28;20338;-76
2022/08/20 02:47:55;;;;;;;;;;;17.90;99.90;;;;;;5051909;28;19961;-77
2022/08/20 02:50:22;;;;;;;;;;;17.90;99.90;;;;;;5054716;28;19970;-78
2022/08/20 02:52:48;;;;;;;;;;;17.90;99.90;;;;;;5054109;28;19920;-75
2022/08/20 02:55:14;;;;;;;;;;;18.00;99.90;;;;;;5054106;28;19909;-75
2022/08/20 02:57:39;;;;;;;;;;;18.00;99.90;;;;;;5054246;28;19909;-75
2022/08/20 03:00:10;;;;;;;;;;;18.00;99.90;;;;;;5054112;28;19909;-78
2022/08/20 03:02:36;;;;;;;;;;;17.90;99.90;;;;;;5053843;28;20003;-75
2022/08/20 03:05:02;;;;;;;;;;;17.90;99.90;;;;;;5053794;28;19959;-75
2022/08/20 03:07:27;;;;;;;;;;;17.90;99.90;;;;;;5053929;28;19936;-76
2022/08/20 03:09:53;;;;;;;;;;;18.00;99.90;;;;;;5058963;28;20370;-77
2022/08/20 03:12:18;;;;;;;;;;;17.90;99.90;;;;;;5053584;28;19959;-75
2022/08/20 03:14:44;;;;;;;;;;;17.90;99.90;;;;;;5053377;28;19909;-75
2022/08/20 03:17:09;;;;;;;;;;;17.80;99.90;;;;;;5053787;28;19970;-75
2022/08/20 03:19:35;;;;;;;;;;;17.80;99.90;;;;;;5053719;28;19959;-75
2022/08/20 03:22:01;;;;;;;;;;;17.60;99.90;;;;;;5053621;28;20411;-75
2022/08/20 03:24:26;;;;;;;;;;;17.40;99.90;;;;;;5053479;28;19909;-74
2022/08/20 03:26:52;;;;;;;;;;;17.20;99.90;;;;;;5053543;28;19962;-75
2022/08/20 03:29:17;;;;;;;;;;;17.10;99.90;;;;;;5053514;28;20050;-74
2022/08/20 03:31:43;;;;;;;;;;;17.00;99.90;;;;;;5052177;28;19919;-75
2022/08/20 03:34:08;;;;;;;;;;;17.00;99.90;;;;;;5051191;28;20012;-75
2022/08/20 03:36:34;;;;;;;;;;;16.90;99.90;;;;;;5048771;28;19959;-76
2022/08/20 03:39:01;;;;;;;;;;;17.00;99.90;;;;;;5048964;28;20435;-74
2022/08/20 03:41:27;;;;;;;;;;;17.00;99.90;;;;;;5051874;28;19909;-75
2022/08/20 03:43:53;;;;;;;;;;;17.00;99.90;;;;;;5046892;28;19916;-75
2022/08/20 03:46:19;;;;;;;;;;;17.10;99.90;;;;;;5053629;28;19913;-75
2022/08/20 03:48:44;;;;;;;;;;;17.10;99.90;;;;;;5053948;28;19909;-75
2022/08/20 03:51:10;;;;;;;;;;;17.20;99.90;;;;;;5052891;28;20270;-75
2022/08/20 03:53:35;;;;;;;;;;;17.30;99.90;;;;;;5053109;28;20309;-75
2022/08/20 03:56:03;;;;;;;;;;;17.40;99.90;;;;;;5052284;28;19912;-75
2022/08/20 03:58:30;;;;;;;;;;;17.40;99.90;;;;;;5052343;28;20428;-75
2022/08/20 04:00:55;;;;;;;;;;;17.40;99.90;;;;;;5053429;28;19966;-75
2022/08/20 04:03:21;;;;;;;;;;;17.40;99.90;;;;;;5051807;28;19912;-75
2022/08/20 04:05:48;;;;;;;;;;;17.30;99.90;;;;;;5053270;28;20401;-75
2022/08/20 04:08:25;;;;;;;;;;;17.30;99.90;;;;;;5048911;28;19924;-74
2022/08/20 04:10:50;;;;;;;;;;;17.30;99.90;;;;;;5053072;28;19936;-75
2022/08/20 04:13:17;;;;;;;;;;;17.30;99.90;;;;;;5052466;28;19949;-75
2022/08/20 04:15:44;;;;;;;;;;;17.30;99.90;;;;;;5053280;28;19931;-77
2022/08/20 04:18:10;;;;;;;;;;;17.20;99.90;;;;;;5052922;28;20287;-75
2022/08/20 04:20:37;;;;;;;;;;;17.10;99.90;;;;;;5052994;28;20389;-75
2022/08/20 04:23:03;;;;;;;;;;;17.00;99.90;;;;;;5053058;28;20277;-75
2022/08/20 04:25:30;;;;;;;;;;;17.00;99.90;;;;;;5052938;28;19963;-74
2022/08/20 04:27:59;;;;;;;;;;;17.00;99.90;;;;;;5052514;28;19916;-75
2022/08/20 04:30:25;;;;;;;;;;;17.00;99.90;;;;;;5052087;28;20002;-75
2022/08/20 04:32:51;;;;;;;;;;;17.00;99.90;;;;;;5052220;28;19963;-75
2022/08/20 04:35:19;;;;;;;;;;;17.00;99.90;;;;;;5052039;28;20286;-75
2022/08/20 04:37:45;;;;;;;;;;;16.90;99.90;;;;;;5050962;28;20381;-76
2022/08/20 04:42:57;;;;;;;;;;;16.90;99.90;;;;;;5046965;28;19916;-75
2022/08/20 04:45:22;;;;;;;;;;;16.90;99.90;;;;;;5052373;28;19913;-75
2022/08/20 04:47:48;;;;;;;;;;;16.90;99.90;;;;;;5052320;28;19909;-75
2022/08/20 04:50:14;;;;;;;;;;;16.80;99.90;;;;;;5052079;28;19956;-75
2022/08/20 04:52:40;;;;;;;;;;;16.90;99.90;;;;;;5051999;28;19955;-77
2022/08/20 04:55:06;;;;;;;;;;;16.90;99.90;;;;;;5051777;28;19944;-76
2022/08/20 04:57:32;;;;;;;;;;;16.80;99.90;;;;;;5052003;28;19913;-76
2022/08/20 04:59:59;;;;;;;;;;;16.90;99.90;;;;;;5051928;28;19916;-76
2022/08/20 05:02:24;;;;;;;;;;;16.90;99.90;;;;;;5051909;28;19912;-76
2022/08/20 05:04:50;;;;;;;;;;;17.00;99.90;;;;;;5051737;28;19909;-75
2022/08/20 05:07:17;;;;;;;;;;;17.10;99.90;;;;;;5051837;28;19909;-75
2022/08/20 05:09:43;;;;;;;;;;;17.10;99.90;;;;;;5055703;28;20312;-76
2022/08/20 05:12:09;;;;;;;;;;;17.10;99.90;;;;;;5056124;28;20289;-76
2022/08/20 05:14:34;;;;;;;;;;;17.10;99.90;;;;;;5051445;28;19913;-77
2022/08/20 05:17:04;;;;;;;;;;;17.10;99.90;;;;;;5051857;28;19908;-76
2022/08/20 05:19:30;;;;;;;;;;;17.10;99.90;;;;;;5051762;28;19944;-76
2022/08/20 05:21:55;;;;;;;;;;;17.10;99.90;;;;;;5051665;28;19909;-75
2022/08/20 05:24:20;;;;;;;;;;;17.10;99.90;;;;;;5051299;28;19920;-76
2022/08/20 05:26:46;;;;;;;;;;;17.10;99.90;;;;;;5051747;28;20404;-75
2022/08/20 05:29:12;;;;;;;;;;;17.00;99.90;;;;;;5051520;28;19913;-76
2022/08/20 05:31:38;;;;;;;;;;;17.00;99.90;;;;;;5051440;28;19913;-76
2022/08/20 05:34:08;;;;;;;;;;;16.90;99.90;;;;;;5051463;28;19909;-75
2022/08/20 05:36:33;;;;;;;;;;;16.90;99.90;;;;;;5050291;28;19908;-76
2022/08/20 05:38:59;;;;;;;;;;;16.90;99.90;;;;;;5045392;28;19913;-75
2022/08/20 05:41:24;;;;;;;;;;;17.00;99.90;;;;;;5052732;28;19932;-75
2022/08/20 05:43:50;;;;;;;;;;;17.10;99.90;;;;;;5054165;28;19944;-75
2022/08/20 05:46:16;;;;;;;;;;;17.00;99.90;;;;;;5051518;28;20005;-75
2022/08/20 05:48:41;;;;;;;;;;;17.10;99.90;;;;;;5051354;28;20374;-75
2022/08/20 05:51:07;;;;;;;;;;;17.00;99.90;;;;;;5051144;28;19915;-76
2022/08/20 05:53:33;;;;;;;;;;;17.10;99.90;;;;;;5050871;28;19967;-75
2022/08/20 05:56:00;;;;;;;;;;;17.10;99.90;;;;;;5049731;28;19909;-75
2022/08/20 05:58:28;;;;;;;;;;;17.20;99.90;;;;;;5051484;28;19908;-76
2022/08/20 06:00:53;;;;;;;;;;;17.20;99.90;;;;;;5051074;28;19949;-77
2022/08/20 06:06:03;;;;;;;;;;;17.30;99.90;;;;;;5051512;28;19959;-76
2022/08/20 06:08:30;;;;;;;;;;;17.50;99.90;;;;;;5049445;28;19917;-75
2022/08/20 06:10:55;;;;;;;;;;;17.70;99.90;;;;;;5048509;28;20320;-75
2022/08/20 06:13:21;;;;;;;;;;;17.90;99.90;;;;;;5051208;28;19920;-76
2022/08/20 06:15:46;;;;;;;;;;;18.10;99.90;;;;;;5051958;28;19908;-75
2022/08/20 06:18:12;;;;;;;;;;;18.30;99.90;;;;;;5050893;28;19909;-76
2022/08/20 06:20:38;;;;;;;;;;;18.40;99.90;;;;;;5051205;28;19962;-76
2022/08/20 06:23:04;;;;;;;;;;;18.50;99.90;;;;;;5053963;28;19971;-75
2022/08/20 06:25:30;;;;;;;;;;;18.50;99.90;;;;;;5054846;28;19909;-75
2022/08/20 06:27:55;;;;;;;;;;;18.60;99.90;;;;;;5054733;28;19919;-75
2022/08/20 06:30:21;;;;;;;;;;;18.80;99.90;;;;;;5054591;28;20505;-75
2022/08/20 06:32:48;;;;;;;;;;;18.90;99.90;;;;;;5047443;28;19913;-75
2022/08/20 06:35:14;;;;;;;;;;;18.90;99.90;;;;;;5054826;28;20348;-75
2022/08/20 06:37:39;;;;;;;;;;;18.90;99.90;;;;;;5054586;28;20008;-75
2022/08/20 06:40:07;;;;;;;;;;;18.90;99.90;;;;;;5053093;28;20007;-75
2022/08/20 06:42:33;;;;;;;;;;;19.00;99.90;;;;;;5053994;28;19909;-75
2022/08/20 06:45:03;;;;;;;;;;;19.00;99.90;;;;;;5054249;28;20285;-76
2022/08/20 06:47:30;;;;;;;;;;;19.00;99.90;;;;;;5054449;28;20361;-75
2022/08/20 06:49:55;;;;;;;;;;;19.10;99.90;;;;;;5054287;28;19954;-75
2022/08/20 06:52:21;;;;;;;;;;;19.10;99.90;;;;;;5053953;28;19917;-76
2022/08/20 06:54:46;;;;;;;;;;;19.10;99.90;;;;;;5053979;28;19909;-77
2022/08/20 06:57:12;;;;;;;;;;;19.10;99.90;;;;;;5054087;28;19916;-75
2022/08/20 06:59:38;;;;;;;;;;;19.20;99.90;;;;;;5053861;28;20098;-75
2022/08/20 07:02:04;;;;;;;;;;;19.20;99.90;;;;;;5053604;28;20293;-76
2022/08/20 07:04:29;;;;;;;;;;;19.40;99.90;;;;;;5053573;28;19992;-76
2022/08/20 07:06:56;;;;;;;;;;;19.50;99.90;;;;;;5053770;28;20338;-76
2022/08/20 07:09:22;;;;;;;;;;;19.60;99.90;;;;;;5052756;28;19994;-76
2022/08/20 07:11:48;;;;;;;;;;;19.80;99.90;;;;;;5058368;28;19960;-76
2022/08/20 07:14:14;;;;;;;;;;;19.90;99.90;;;;;;5053967;28;20005;-76
2022/08/20 07:16:40;;;;;;;;;;;19.80;99.90;;;;;;5053501;28;19970;-76
2022/08/20 07:19:06;;;;;;;;;;;19.80;99.90;;;;;;5053596;28;19971;-75
2022/08/20 07:21:32;;;;;;;;;;;19.60;99.90;;;;;;5053400;28;19917;-76
2022/08/20 07:23:58;;;;;;;;;;;19.60;99.90;;;;;;5053248;28;19909;-76
2022/08/20 07:26:23;;;;;;;;;;;19.60;99.90;;;;;;5053480;28;19979;-76
2022/08/20 07:28:49;;;;;;;;;;;19.60;99.90;;;;;;5053855;28;19939;-76
2022/08/20 07:33:59;;;;;;;;;;;19.80;99.90;;;;;;5050628;28;19963;-76
2022/08/20 07:36:24;;;;;;;;;;;19.90;99.90;;;;;;5051360;28;19909;-76
2022/08/20 07:38:51;;;;;;;;;;;19.90;99.90;;;;;;5053428;28;20362;-76
2022/08/20 07:41:17;;;;;;;;;;;19.90;99.90;;;;;;5053053;28;19909;-76
2022/08/20 07:43:46;;;;;;;;;;;20.00;99.90;;;;;;5052841;28;19935;-76
2022/08/20 07:46:12;;;;;;;;;;;20.10;99.90;;;;;;5053257;28;19909;-76
2022/08/20 07:48:39;;;;;;;;;;;20.10;99.90;;;;;;5053322;28;19909;-76
2022/08/20 07:51:05;;;;;;;;;;;19.90;99.90;;;;;;5052684;28;19908;-76
2022/08/20 07:53:32;;;;;;;;;;;19.90;99.90;;;;;;5046393;28;19915;-76
2022/08/20 07:55:58;;;;;;;;;;;20.10;99.90;;;;;;5045851;28;19909;-76
2022/08/20 07:58:24;;;;;;;;;;;20.10;99.90;;;;;;5046872;28;19916;-76
2022/08/20 08:00:50;;;;;;;;;;;20.20;99.90;;;;;;5052959;28;20359;-76
2022/08/20 08:03:15;;;;;;;;;;;20.20;99.90;;;;;;5052590;28;20401;-76
2022/08/20 08:05:44;;;;;;;;;;;20.40;99.90;;;;;;5058994;28;20308;-76
2022/08/20 08:08:12;;;;;;;;;;;20.40;99.90;;;;;;5052637;28;19916;-76
2022/08/20 08:10:39;;;;;;;;;;;20.50;99.90;;;;;;5052655;28;20350;-76
2022/08/20 08:13:07;;;;;;;;;;;20.70;99.90;;;;;;5052422;28;19967;-77
2022/08/20 08:15:33;;;;;;;;;;;21.00;99.90;;;;;;5051552;28;19912;-76
2022/08/20 08:18:10;;;;;;;;;;;21.20;99.90;;;;;;5052673;28;19915;-76
2022/08/20 08:20:39;;;;;;;;;;;21.40;99.90;;;;;;5046803;28;19938;-76
2022/08/20 08:23:06;;;;;;;;;;;21.40;99.90;;;;;;5052229;28;19916;-76
2022/08/20 08:25:32;;;;;;;;;;;21.30;99.90;;;;;;5052414;28;20389;-76
2022/08/20 08:27:59;;;;;;;;;;;21.40;99.90;;;;;;5053039;28;19909;-76
2022/08/20 08:30:25;;;;;;;;;;;21.60;99.90;;;;;;5052759;28;19908;-76
2022/08/20 08:35:45;;;;;;;;;;;22.00;99.90;;;;;;5049654;28;19960;-76
2022/08/20 08:38:11;;;;;;;;;;;22.10;99.90;;;;;;5052708;28;19909;-75
2022/08/20 08:40:37;;;;;;;;;;;22.10;99.90;;;;;;5052566;28;19909;-75
2022/08/20 08:43:03;;;;;;;;;;;22.20;99.90;;;;;;5052710;28;19916;-75
2022/08/20 08:45:33;;;;;;;;;;;22.00;99.90;;;;;;5051992;28;19909;-75
2022/08/20 08:47:59;;;;;;;;;;;22.10;99.90;;;;;;5052025;28;19956;-75
2022/08/20 08:50:30;;;;;;;;;;;22.50;99.90;;;;;;5051700;28;19948;-75
2022/08/20 08:52:58;;;;;;;;;;;22.70;99.90;;;;;;5051695;28;20008;-75
2022/08/20 08:55:24;;;;;;;;;;;23.00;99.90;;;;;;5051414;28;20019;-76
2022/08/20 08:57:52;;;;;;;;;;;23.50;99.90;;;;;;5052318;28;19909;-75
2022/08/20 09:00:20;;;;;;;;;;;23.10;99.90;;;;;;5052186;28;19970;-75
2022/08/20 09:03:12;;;;;;;;;;;23.20;99.90;;;;;;5051928;28;19908;-75
2022/08/20 09:05:41;;;;;;;;;;;22.90;99.90;;;;;;5045974;28;20378;-75
2022/08/20 09:08:10;;;;;;;;;;;23.40;99.90;;;;;;5048309;28;19940;-75
2022/08/20 09:10:37;;;;;;;;;;;23.80;99.90;;;;;;5052125;28;19954;-75
2022/08/20 09:13:03;;;;;;;;;;;23.40;99.90;;;;;;5051874;28;19912;-75
2022/08/20 09:15:29;;;;;;;;;;;24.00;99.90;;;;;;5051569;28;19908;-75
2022/08/20 09:17:55;;;;;;;;;;;24.20;99.90;;;;;;5051924;28;19916;-75
2022/08/20 09:20:20;;;;;;;;;;;23.70;99.90;;;;;;5051738;28;19913;-76
2022/08/20 09:22:45;;;;;;;;;;;24.40;99.90;;;;;;5051875;28;19909;-75
2022/08/20 09:25:11;;;;;;;;;;;24.70;99.90;;;;;;5051647;28;19992;-75
2022/08/20 09:27:37;;;;;;;;;;;24.50;99.90;;;;;;5045358;28;19909;-75
2022/08/20 09:30:03;;;;;;;;;;;24.40;99.90;;;;;;5051499;28;19913;-77
2022/08/20 09:32:28;;;;;;;;;;;24.20;99.90;;;;;;5051534;28;19962;-76
2022/08/20 09:34:58;;;;;;;;;;;23.90;99.90;;;;;;5051354;28;19986;-75
2022/08/20 09:37:25;;;;;;;;;;;23.20;99.90;;;;;;5060495;28;19909;-75
2022/08/20 09:39:50;;;;;;;;;;;22.30;99.90;;;;;;5051473;28;19909;-76
2022/08/20 09:42:17;;;;;;;;;;;22.10;99.90;;;;;;5050117;28;19908;-75
2022/08/20 09:44:43;;;;;;;;;;;21.10;99.90;;;;;;5050602;28;19912;-75
2022/08/20 09:47:09;;;;;;;;;;;20.60;99.90;;;;;;5052235;28;20302;-75
2022/08/20 09:49:36;;;;;;;;;;;20.50;99.90;;;;;;5051493;28;19959;-75
2022/08/20 09:52:02;;;;;;;;;;;20.60;99.90;;;;;;5046868;28;20004;-75
2022/08/20 09:54:29;;;;;;;;;;;20.80;99.90;;;;;;5051113;28;19912;-75
2022/08/20 09:56:56;;;;;;;;;;;21.10;99.90;;;;;;5052868;28;20438;-75
2022/08/20 09:59:21;;;;;;;;;;;21.40;99.90;;;;;;5055530;28;19920;-75
2022/08/20 10:01:47;;;;;;;;;;;21.60;99.90;;;;;;5054115;28;19909;-76
2022/08/20 10:04:13;;;;;;;;;;;21.80;99.90;;;;;;5055124;28;20340;-75
2022/08/20 10:06:39;;;;;;;;;;;21.60;99.90;;;;;;5059006;28;19978;-75
2022/08/20 10:09:05;;;;;;;;;;;21.20;99.90;;;;;;5057171;28;20078;-75
2022/08/20 10:11:30;;;;;;;;;;;21.00;99.90;;;;;;5054871;28;20008;-75
2022/08/20 10:13:56;;;;;;;;;;;20.70;99.90;;;;;;5054926;28;20297;-78
2022/08/20 10:16:21;;;;;;;;;;;20.40;99.90;;;;;;5055237;28;19913;-74
2022/08/20 10:18:49;;;;;;;;;;;20.30;99.90;;;;;;5054935;28;19913;-74
2022/08/20 10:21:15;;;;;;;;;;;20.20;99.90;;;;;;5054881;28;20370;-75
2022/08/20 10:23:41;;;;;;;;;;;20.00;99.90;;;;;;5054797;28;19942;-75
2022/08/20 10:26:07;;;;;;;;;;;19.90;99.90;;;;;;5054795;28;19916;-75
2022/08/20 10:28:33;;;;;;;;;;;19.90;99.90;;;;;;5054818;28;19915;-75
2022/08/20 10:30:59;;;;;;;;;;;19.80;99.90;;;;;;5054715;28;20480;-75
2022/08/20 10:33:24;;;;;;;;;;;19.80;99.90;;;;;;5054103;28;20020;-75
2022/08/20 10:35:50;;;;;;;;;;;19.90;99.90;;;;;;5052720;28;19916;-75
2022/08/20 10:38:15;;;;;;;;;;;19.80;99.90;;;;;;5054598;28;19908;-74
2022/08/20 10:40:41;;;;;;;;;;;19.60;99.90;;;;;;5054364;28;19916;-75
2022/08/20 10:43:06;;;;;;;;;;;19.60;99.90;;;;;;5054268;28;19947;-75
2022/08/20 10:45:32;;;;;;;;;;;19.60;99.90;;;;;;5054361;28;19944;-76
2022/08/20 10:47:58;;;;;;;;;;;19.40;99.90;;;;;;5054387;28;20302;-74
2022/08/20 10:50:24;;;;;;;;;;;19.50;99.90;;;;;;5054305;28;19955;-76
2022/08/20 10:52:50;;;;;;;;;;;19.60;99.90;;;;;;5054246;28;19917;-74
2022/08/20 10:55:15;;;;;;;;;;;19.70;99.90;;;;;;5053996;28;19909;-75
2022/08/20 10:57:41;;;;;;;;;;;19.60;99.90;;;;;;5054633;28;19948;-75
2022/08/20 11:00:09;;;;;;;;;;;19.70;99.90;;;;;;5054283;28;19909;-75
2022/08/20 11:02:34;;;;;;;;;;;19.70;99.90;;;;;;5039607;28;20012;-75
2022/08/20 11:05:00;;;;;;;;;;;19.70;99.90;;;;;;5047541;28;20089;-75
2022/08/20 11:07:25;;;;;;;;;;;19.50;99.90;;;;;;5058802;28;19931;-76
2022/08/20 11:09:51;;;;;;;;;;;19.60;99.90;;;;;;5053849;28;19918;-76
2022/08/20 11:12:18;;;;;;;;;;;19.50;99.90;;;;;;5054217;28;19944;-77
2022/08/20 11:14:43;;;;;;;;;;;19.70;99.90;;;;;;5053624;28;20019;-76
2022/08/20 11:17:09;;;;;;;;;;;19.80;99.90;;;;;;5053899;28;20398;-76
2022/08/20 11:19:42;;;;;;;;;;;19.90;99.90;;;;;;5053867;28;19916;-76
2022/08/20 11:22:09;;;;;;;;;;;19.90;99.90;;;;;;5053836;28;19909;-76
2022/08/20 11:24:34;;;;;;;;;;;19.90;99.90;;;;;;5053243;28;19909;-76
2022/08/20 11:27:00;;;;;;;;;;;19.90;99.90;;;;;;5053818;28;19963;-76
2022/08/20 11:29:25;;;;;;;;;;;19.70;99.90;;;;;;5053884;28;20349;-76
2022/08/20 11:31:51;;;;;;;;;;;19.60;99.90;;;;;;5053188;28;19958;-76
2022/08/20 11:34:16;;;;;;;;;;;19.50;99.90;;;;;;5052096;28;20019;-76
2022/08/20 11:36:43;;;;;;;;;;;19.50;99.90;;;;;;5054836;28;20294;-76
2022/08/20 11:39:08;;;;;;;;;;;19.40;99.90;;;;;;5053334;28;20362;-76
2022/08/20 11:41:34;;;;;;;;;;;19.40;99.90;;;;;;5052970;28;19909;-75
2022/08/20 11:43:59;;;;;;;;;;;19.50;99.90;;;;;;5053234;28;20004;-75
2022/08/20 11:46:25;;;;;;;;;;;19.60;99.90;;;;;;5052429;28;19961;-75
2022/08/20 11:48:50;;;;;;;;;;;19.70;99.90;;;;;;5053104;28;19909;-75
2022/08/20 11:51:16;;;;;;;;;;;19.80;99.90;;;;;;5053203;28;19909;-75
2022/08/20 11:53:41;;;;;;;;;;;19.90;99.90;;;;;;5052760;28;19919;-75
2022/08/20 11:56:07;;;;;;;;;;;20.10;99.90;;;;;;5052017;28;20395;-75
2022/08/20 11:58:32;;;;;;;;;;;20.30;99.90;;;;;;5053329;28;19912;-75
2022/08/20 12:00:58;;;;;;;;;;;20.30;99.90;;;;;;5053139;28;19909;-75
2022/08/20 12:03:23;;;;;;;;;;;20.40;99.90;;;;;;5052886;28;20278;-75
2022/08/20 12:05:49;;;;;;;;;;;20.40;99.90;;;;;;5055755;28;19956;-75
2022/08/20 12:08:15;;;;;;;;;;;20.40;99.90;;;;;;5052392;28;19924;-75
2022/08/20 12:10:40;;;;;;;;;;;20.60;99.90;;;;;;5052954;28;19909;-74
2022/08/20 12:13:06;;;;;;;;;;;20.60;99.90;;;;;;5052273;28;20004;-76
2022/08/20 12:15:33;;;;;;;;;;;20.60;99.90;;;;;;5051645;28;19912;-75
2022/08/20 12:18:00;;;;;;;;;;;20.60;99.90;;;;;;5052840;28;19912;-74
2022/08/20 12:20:25;;;;;;;;;;;20.80;99.90;;;;;;5051857;28;19915;-74
2022/08/20 12:22:52;;;;;;;;;;;21.00;99.90;;;;;;5052021;28;19913;-75
2022/08/20 12:25:18;;;;;;;;;;;21.10;99.90;;;;;;5052217;28;20397;-75
2022/08/20 12:27:44;;;;;;;;;;;21.10;99.90;;;;;;5052301;28;19951;-75
2022/08/20 12:30:11;;;;;;;;;;;21.10;99.90;;;;;;5052185;28;20281;-75
2022/08/20 12:32:37;;;;;;;;;;;21.30;99.90;;;;;;5052363;28;19971;-75
2022/08/20 12:35:04;;;;;;;;;;;21.40;99.90;;;;;;5049893;28;19936;-76
2022/08/20 12:37:30;;;;;;;;;;;21.50;99.90;;;;;;5057620;28;19908;-75
2022/08/20 12:39:56;;;;;;;;;;;21.60;99.90;;;;;;5045644;28;20285;-75
2022/08/20 12:42:21;;;;;;;;;;;21.60;99.90;;;;;;5052204;28;19909;-75
2022/08/20 12:44:47;;;;;;;;;;;21.70;99.90;;;;;;5051970;28;19954;-75
2022/08/20 12:47:26;;;;;;;;;;;21.90;99.90;;;;;;5052283;28;19908;-75
2022/08/20 12:49:59;;;;;;;;;;;22.70;99.90;;;;;;5052073;28;19996;-75
2022/08/20 12:52:25;;;;;;;;;;;23.40;99.90;;;;;;5051922;28;19913;-77
2022/08/20 12:54:51;;;;;;;;;;;23.50;99.90;;;;;;5051822;28;20464;-76
2022/08/20 12:57:23;;;;;;;;;;;23.60;99.90;;;;;;5051699;28;19944;-75
2022/08/20 12:59:49;;;;;;;;;;;23.10;99.90;;;;;;5052050;28;19916;-75
2022/08/20 13:02:16;;;;;;;;;;;22.70;99.90;;;;;;5051932;28;19909;-75
2022/08/20 13:04:42;;;;;;;;;;;23.40;99.90;;;;;;5051561;28;19971;-75
2022/08/20 13:07:09;;;;;;;;;;;26.50;99.90;;;;;;5059549;28;19955;-75
2022/08/20 13:09:34;;;;;;;;;;;29.40;94.70;;;;;;5051757;28;19917;-75
2022/08/20 13:12:00;;;;;;;;;;;26.80;94.30;;;;;;5051699;28;19919;-75
2022/08/20 13:14:25;;;;;;;;;;;25.60;97.30;;;;;;5051737;28;19909;-75
2022/08/20 13:16:58;;;;;;;;;;;24.10;99.90;;;;;;5051695;28;19912;-75
2022/08/20 13:19:24;;;;;;;;;;;23.40;99.90;;;;;;5051749;28;20516;-75
2022/08/20 13:21:50;;;;;;;;;;;23.00;99.90;;;;;;5051705;28;20070;-77
2022/08/20 13:24:16;;;;;;;;;;;22.70;99.90;;;;;;5051615;28;19928;-76
2022/08/20 13:26:41;;;;;;;;;;;22.60;99.90;;;;;;5051718;28;19912;-75
2022/08/20 13:29:07;;;;;;;;;;;22.70;99.90;;;;;;5051534;28;19992;-76
2022/08/20 13:31:32;;;;;;;;;;;22.60;99.90;;;;;;5050410;28;20396;-76
2022/08/20 13:33:58;;;;;;;;;;;22.40;99.90;;;;;;5051231;28;19970;-76
2022/08/20 13:36:23;;;;;;;;;;;24.70;99.90;;;;;;5054786;28;19908;-75
2022/08/20 13:38:49;;;;;;;;;;;26.30;94.90;;;;;;5049858;28;19909;-76
2022/08/20 13:41:14;;;;;;;;;;;27.50;92.00;;;;;;5058130;28;20003;-76
2022/08/20 13:43:40;;;;;;;;;;;26.20;93.10;;;;;;5051104;28;20373;-77
2022/08/20 13:46:05;;;;;;;;;;;26.40;94.60;;;;;;5051422;28;19916;-77
2022/08/20 13:48:31;;;;;;;;;;;27.20;91.50;;;;;;5051409;28;19912;-77
2022/08/20 13:50:57;;;;;;;;;;;26.50;90.80;;;;;;5051333;28;19948;-76
2022/08/20 13:53:23;;;;;;;;;;;25.60;91.30;;;;;;5050858;28;19912;-77
2022/08/20 13:55:48;;;;;;;;;;;24.90;93.80;;;;;;5051301;28;19965;-76
2022/08/20 13:58:14;;;;;;;;;;;25.30;94.70;;;;;;5051205;28;19909;-76
2022/08/20 14:00:39;;;;;;;;;;;29.30;87.50;;;;;;5051254;28;19916;-77
2022/08/20 14:03:05;;;;;;;;;;;30.00;77.40;;;;;;5050434;28;19909;-77
2022/08/20 14:05:32;;;;;;;;;;;32.40;70.40;;;;;;5049563;28;20428;-77
2022/08/20 14:08:08;;;;;;;;;;;33.00;63.70;;;;;;5051039;28;19913;-77
2022/08/20 14:10:34;;;;;;;;;;;33.30;64.20;;;;;;5060151;28;19955;-77
2022/08/20 14:13:02;;;;;;;;;;;34.60;59.90;;;;;;5052405;28;19960;-77
2022/08/20 14:15:28;;;;;;;;;;;33.70;59.20;;;;;;5050754;28;20089;-77
2022/08/20 14:17:54;;;;;;;;;;;33.50;66.60;;;;;;5051024;28;19915;-77
2022/08/20 14:20:21;;;;;;;;;;;32.00;67.60;;;;;;5047545;28;19909;-76
2022/08/20 14:22:47;;;;;;;;;;;31.70;72.20;;;;;;5048865;28;19913;-75